Terminal Aerodrome Forecast
Issued by NWS

Home | Current Version | Previous Version | Text Only | Print | Product List | Glossary On
Versions: 1 2 3 4 5 6 7 8 9 10 11 12
000
FTUS43 KIND 261724
TAFHUF
TAF
KHUF 261724Z 2618/2718 18012G22KT P6SM SCT045 BKN200
     FM262200 17014G20KT P6SM VCTS SCT045CB BKN090
     FM270300 16014KT P6SM -SHRA VCTS SCT045CB BKN070 WS020/18045KT
     FM270600 19015G23KT P6SM SHRA VCTS BKN045CB
     FM271000 21013KT P6SM SHRA OVC008
     FM271600 25013KT P6SM BKN020=

USA.gov is the U.S. government's official web portal to all federal, state and local government web resources and services.